createdAt,value
2018-05-31T00:00:23.377Z,58
2018-05-31T00:01:25.376Z,58
2018-05-31T00:02:27.394Z,58
2018-05-31T00:03:30.082Z,58
2018-05-31T00:04:32.087Z,58
2018-05-31T00:05:34.838Z,57
2018-05-31T00:06:36.844Z,57
2018-05-31T00:07:38.853Z,58
2018-05-31T00:08:40.853Z,58
2018-05-31T00:09:42.867Z,58
2018-05-31T00:10:44.873Z,58
2018-05-31T00:11:46.865Z,58
2018-05-31T00:12:48.872Z,59
2018-05-31T00:13:50.872Z,58
2018-05-31T00:14:52.877Z,58
2018-05-31T00:15:54.883Z,58
2018-05-31T00:16:56.885Z,58
2018-05-31T00:17:58.889Z,58
2018-05-31T00:19:00.939Z,59
2018-05-31T00:20:02.904Z,59
2018-05-31T00:21:04.917Z,59
2018-05-31T00:22:06.916Z,59
2018-05-31T00:23:08.920Z,60
2018-05-31T00:24:10.921Z,59
2018-05-31T00:25:12.960Z,60
2018-05-31T00:26:14.923Z,60
2018-05-31T00:27:16.934Z,60
2018-05-31T00:28:18.933Z,60
2018-05-31T00:29:20.933Z,60
2018-05-31T00:30:22.939Z,60
2018-05-31T00:31:24.940Z,60
2018-05-31T00:32:26.942Z,60
2018-05-31T00:33:28.945Z,61
2018-05-31T00:34:30.942Z,61
2018-05-31T00:35:32.951Z,61
2018-05-31T00:36:34.943Z,61
2018-05-31T00:37:36.955Z,61
2018-05-31T00:38:39.239Z,62
2018-05-31T00:39:41.249Z,62
2018-05-31T00:40:43.248Z,63
2018-05-31T00:41:45.642Z,63
2018-05-31T00:42:47.636Z,63
2018-05-31T00:43:49.644Z,62
2018-05-31T00:44:51.636Z,63
2018-05-31T00:45:53.646Z,63
2018-05-31T00:46:55.946Z,63
2018-05-31T00:47:57.950Z,64
2018-05-31T00:48:59.950Z,65
2018-05-31T00:50:01.951Z,64
2018-05-31T00:51:03.952Z,64
2018-05-31T00:52:05.950Z,64
2018-05-31T00:53:07.950Z,64
2018-05-31T00:54:10.349Z,64
2018-05-31T00:55:12.352Z,63
2018-05-31T00:56:14.356Z,64
2018-05-31T00:57:16.357Z,64
2018-05-31T00:58:18.372Z,64
2018-05-31T00:59:20.909Z,63
2018-05-31T01:00:22.912Z,63
2018-05-31T01:01:24.918Z,63
2018-05-31T01:02:27.209Z,64
2018-05-31T01:03:29.206Z,63
2018-05-31T01:04:31.214Z,63
2018-05-31T01:05:33.209Z,64
2018-05-31T01:06:35.607Z,65
2018-05-31T01:07:37.605Z,64
2018-05-31T01:08:39.613Z,66
2018-05-31T01:09:41.618Z,66
2018-05-31T01:10:43.623Z,66
2018-05-31T01:11:45.628Z,67
2018-05-31T01:12:47.639Z,66
2018-05-31T01:13:49.933Z,66
2018-05-31T01:14:52.261Z,65
2018-05-31T01:15:54.645Z,65
2018-05-31T01:16:56.661Z,65
2018-05-31T01:17:59.048Z,65
2018-05-31T01:19:01.055Z,65
2018-05-31T01:20:03.055Z,65
2018-05-31T01:21:05.051Z,66
2018-05-31T01:22:07.357Z,66
2018-05-31T01:23:09.367Z,66
2018-05-31T01:24:11.371Z,66
2018-05-31T01:25:14.096Z,66
2018-05-31T01:26:16.846Z,66
2018-05-31T01:27:18.849Z,66
2018-05-31T01:28:20.850Z,66
2018-05-31T01:29:23.239Z,66
2018-05-31T01:30:25.243Z,66
2018-05-31T01:31:27.249Z,66
2018-05-31T01:32:29.239Z,66
2018-05-31T01:33:31.559Z,66
2018-05-31T01:34:33.561Z,66
2018-05-31T01:35:35.562Z,66
2018-05-31T01:36:37.864Z,66
2018-05-31T01:37:39.863Z,65
2018-05-31T01:38:42.247Z,65
2018-05-31T01:39:44.266Z,65
2018-05-31T01:40:46.267Z,66
2018-05-31T01:41:48.260Z,66
2018-05-31T01:42:50.263Z,66
2018-05-31T01:43:52.268Z,66
2018-05-31T01:44:54.276Z,66
2018-05-31T01:45:56.277Z,66
2018-05-31T01:46:58.293Z,68
2018-05-31T01:48:00.303Z,68
2018-05-31T01:49:02.600Z,69
2018-05-31T01:50:04.602Z,69
2018-05-31T01:51:06.991Z,69
2018-05-31T01:52:08.994Z,70
2018-05-31T01:53:11.001Z,69
2018-05-31T01:54:13.297Z,69
2018-05-31T01:55:15.299Z,69
2018-05-31T01:56:17.297Z,69
2018-05-31T01:57:19.293Z,69
2018-05-31T01:58:21.306Z,69
2018-05-31T01:59:23.310Z,69
2018-05-31T02:00:25.908Z,69
2018-05-31T02:01:27.918Z,69
2018-05-31T02:02:29.925Z,69
2018-05-31T02:03:31.934Z,69
2018-05-31T02:04:33.931Z,69
2018-05-31T02:05:35.944Z,70
2018-05-31T02:06:37.945Z,70
2018-05-31T02:07:39.932Z,69
2018-05-31T02:08:41.940Z,69
2018-05-31T02:09:43.944Z,69
2018-05-31T02:10:45.949Z,68
2018-05-31T02:11:47.950Z,68
2018-05-31T02:12:50.214Z,70
2018-05-31T02:13:52.217Z,70
2018-05-31T02:14:54.214Z,70
2018-05-31T02:15:56.608Z,70
2018-05-31T02:16:58.995Z,71
2018-05-31T02:18:00.991Z,71
2018-05-31T02:19:02.998Z,70
2018-05-31T02:20:05.277Z,71
2018-05-31T02:21:07.629Z,71
2018-05-31T02:22:09.616Z,71
2018-05-31T02:23:11.623Z,72
2018-05-31T02:24:13.630Z,71
2018-05-31T02:25:15.929Z,71
2018-05-31T02:26:17.936Z,71
2018-05-31T02:27:19.939Z,71
2018-05-31T02:28:21.937Z,71
2018-05-31T02:29:23.954Z,71
2018-05-31T02:30:25.939Z,71
2018-05-31T02:31:28.595Z,71
2018-05-31T02:32:30.553Z,71
2018-05-31T02:33:33.132Z,71
2018-05-31T02:34:35.134Z,72
2018-05-31T02:35:37.136Z,72
2018-05-31T02:36:39.133Z,73
2018-05-31T02:37:41.142Z,73
2018-05-31T02:38:43.135Z,73
2018-05-31T02:39:45.143Z,73
2018-05-31T02:40:47.521Z,73
2018-05-31T02:41:49.905Z,74
2018-05-31T02:42:51.910Z,74
2018-05-31T02:43:53.917Z,73
2018-05-31T02:44:55.918Z,73
2018-05-31T02:45:57.918Z,74
2018-05-31T02:46:59.908Z,73
2018-05-31T02:48:02.230Z,73
2018-05-31T02:49:04.232Z,73
2018-05-31T02:50:06.237Z,74
2018-05-31T02:51:08.621Z,74
2018-05-31T02:52:10.624Z,74
2018-05-31T02:53:12.635Z,74
2018-05-31T02:54:14.630Z,75
2018-05-31T02:55:16.627Z,75
2018-05-31T02:56:18.633Z,75
2018-05-31T02:57:20.635Z,76
2018-05-31T02:58:22.645Z,75
2018-05-31T02:59:24.643Z,75
2018-05-31T03:00:26.653Z,75
2018-05-31T03:01:28.652Z,75
2018-05-31T03:02:30.641Z,75
2018-05-31T03:03:32.645Z,75
2018-05-31T03:04:34.658Z,75
2018-05-31T03:05:37.036Z,75
2018-05-31T03:06:39.036Z,76
2018-05-31T03:07:41.087Z,76
2018-05-31T03:08:43.331Z,76
2018-05-31T03:09:45.333Z,76
2018-05-31T03:10:47.714Z,77
2018-05-31T03:11:50.622Z,77
2018-05-31T03:12:53.013Z,76
2018-05-31T03:13:55.384Z,77
2018-05-31T03:14:57.392Z,77
2018-05-31T03:15:59.388Z,77
2018-05-31T03:17:01.400Z,77
2018-05-31T03:18:03.396Z,77
2018-05-31T03:19:05.409Z,77
2018-05-31T03:20:07.697Z,77
2018-05-31T03:21:09.976Z,78
2018-05-31T03:22:11.979Z,77
2018-05-31T03:23:13.987Z,77
2018-05-31T03:24:15.985Z,77
2018-05-31T03:25:17.986Z,77
2018-05-31T03:26:19.983Z,77
2018-05-31T03:27:22.597Z,77
2018-05-31T03:28:24.609Z,77
2018-05-31T03:29:26.600Z,77
2018-05-31T03:30:29.287Z,78
2018-05-31T03:31:31.667Z,78
2018-05-31T03:32:33.672Z,78
2018-05-31T03:33:35.973Z,78
2018-05-31T03:34:37.977Z,78
2018-05-31T03:35:39.966Z,78
2018-05-31T03:36:41.972Z,78
2018-05-31T03:37:43.967Z,78
2018-05-31T03:38:46.647Z,78
2018-05-31T03:39:48.644Z,78
2018-05-31T03:40:50.648Z,77
2018-05-31T03:41:53.036Z,77
2018-05-31T03:42:55.031Z,78
2018-05-31T03:43:57.032Z,78
2018-05-31T03:44:59.048Z,78
2018-05-31T03:46:01.042Z,78
2018-05-31T03:47:03.043Z,78
2018-05-31T03:48:05.040Z,78
2018-05-31T03:49:07.769Z,78
2018-05-31T03:50:10.075Z,78
2018-05-31T03:51:12.071Z,78
2018-05-31T03:52:14.069Z,77
2018-05-31T03:53:16.071Z,77
2018-05-31T03:54:18.058Z,77
2018-05-31T03:55:20.072Z,77
2018-05-31T03:56:22.071Z,77
2018-05-31T03:57:24.075Z,77
2018-05-31T03:58:26.082Z,77
2018-05-31T03:59:28.087Z,78
2018-05-31T04:00:30.091Z,78
2018-05-31T04:01:32.157Z,78
2018-05-31T04:02:34.091Z,78
2018-05-31T04:03:36.102Z,78
2018-05-31T04:04:38.104Z,78
2018-05-31T04:05:40.426Z,78
2018-05-31T04:06:42.718Z,79
2018-05-31T04:07:45.006Z,79
2018-05-31T04:08:47.292Z,78
2018-05-31T04:09:50.001Z,78
2018-05-31T04:10:52.022Z,78
2018-05-31T04:11:54.001Z,78
2018-05-31T04:12:56.028Z,78
2018-05-31T04:13:58.327Z,78
2018-05-31T04:15:00.323Z,78
2018-05-31T04:16:02.323Z,78
2018-05-31T04:17:04.320Z,78
2018-05-31T04:18:06.317Z,78
2018-05-31T04:19:08.627Z,78
2018-05-31T04:20:10.628Z,78
2018-05-31T04:21:12.951Z,78
2018-05-31T04:22:14.956Z,78
2018-05-31T04:23:16.953Z,78
2018-05-31T04:24:18.965Z,77
2018-05-31T04:25:20.961Z,78
2018-05-31T04:26:23.275Z,78
2018-05-31T04:27:25.279Z,78
2018-05-31T04:28:27.285Z,78
2018-05-31T04:29:29.278Z,78
2018-05-31T04:30:31.292Z,78
2018-05-31T04:31:33.582Z,78
2018-05-31T04:32:35.971Z,78
2018-05-31T04:33:38.729Z,78
2018-05-31T04:34:40.683Z,78
2018-05-31T04:35:43.061Z,78
2018-05-31T04:36:45.401Z,78
2018-05-31T04:37:47.377Z,78
2018-05-31T04:38:49.386Z,78
2018-05-31T04:39:51.397Z,77
2018-05-31T04:40:54.090Z,77
2018-05-31T04:41:56.380Z,76
2018-05-31T04:42:58.388Z,76
2018-05-31T04:44:00.377Z,76
2018-05-31T04:45:02.384Z,76
2018-05-31T04:46:04.397Z,75
2018-05-31T04:47:06.401Z,75
2018-05-31T04:48:08.405Z,76
2018-05-31T04:49:11.030Z,75
2018-05-31T04:50:13.414Z,75
2018-05-31T04:51:15.427Z,75
2018-05-31T04:52:17.421Z,75
2018-05-31T04:53:19.433Z,75
2018-05-31T04:54:22.166Z,75
2018-05-31T04:55:25.330Z,74
2018-05-31T04:56:27.328Z,74
2018-05-31T04:57:29.332Z,74
2018-05-31T04:58:31.334Z,74
2018-05-31T04:59:33.347Z,73
2018-05-31T05:00:35.627Z,73
2018-05-31T05:01:37.635Z,73
2018-05-31T05:02:39.638Z,73
2018-05-31T05:03:41.937Z,73
2018-05-31T05:04:43.938Z,72
2018-05-31T05:05:45.952Z,72
2018-05-31T05:06:47.947Z,71
2018-05-31T05:07:50.337Z,71
2018-05-31T05:08:52.339Z,71
2018-05-31T05:09:54.349Z,71
2018-05-31T05:10:56.359Z,71
2018-05-31T05:11:58.354Z,70
2018-05-31T05:13:00.363Z,70
2018-05-31T05:14:02.367Z,70
2018-05-31T05:15:04.354Z,71
2018-05-31T05:16:06.375Z,70
2018-05-31T05:17:08.378Z,70
2018-05-31T05:18:10.382Z,70
2018-05-31T05:19:12.382Z,69
2018-05-31T05:20:14.383Z,70
2018-05-31T05:21:16.384Z,70
2018-05-31T05:22:18.386Z,70
2018-05-31T05:23:20.394Z,69
2018-05-31T05:24:22.386Z,69
2018-05-31T05:25:24.391Z,69
2018-05-31T05:26:26.428Z,69
2018-05-31T05:27:28.391Z,69
2018-05-31T05:28:30.401Z,69
2018-05-31T05:29:32.403Z,69
2018-05-31T05:30:34.696Z,69
2018-05-31T05:31:37.080Z,69
2018-05-31T05:32:39.081Z,69
2018-05-31T05:33:41.098Z,69
2018-05-31T05:34:43.106Z,69
2018-05-31T05:35:45.112Z,69
2018-05-31T05:36:47.127Z,69
2018-05-31T05:37:49.127Z,70
2018-05-31T05:38:51.136Z,70
2018-05-31T05:39:53.526Z,70
2018-05-31T05:40:55.858Z,71
2018-05-31T05:41:57.895Z,71
2018-05-31T05:42:59.896Z,71
2018-05-31T05:44:02.286Z,71
2018-05-31T05:45:04.592Z,71
2018-05-31T05:46:06.596Z,71
2018-05-31T05:47:08.611Z,70
2018-05-31T05:48:10.616Z,70
2018-05-31T05:49:12.625Z,69
2018-05-31T05:50:14.650Z,70
2018-05-31T05:51:16.635Z,70
2018-05-31T05:52:18.655Z,70
2018-05-31T05:53:20.667Z,69
2018-05-31T05:54:22.678Z,69
2018-05-31T05:55:24.684Z,69
2018-05-31T05:56:26.737Z,68
2018-05-31T05:57:29.005Z,68
2018-05-31T05:58:31.021Z,68
2018-05-31T05:59:33.028Z,67
2018-05-31T06:00:35.037Z,68
2018-05-31T06:01:37.333Z,67
2018-05-31T06:02:39.341Z,67
2018-05-31T06:03:41.660Z,68
2018-05-31T06:04:43.671Z,67
2018-05-31T06:05:45.679Z,65
2018-05-31T06:06:47.701Z,66
2018-05-31T06:07:49.701Z,65
2018-05-31T06:08:52.024Z,64
2018-05-31T06:09:54.096Z,64
2018-05-31T06:10:56.423Z,65
2018-05-31T06:11:58.428Z,66
2018-05-31T06:13:00.437Z,66
2018-05-31T06:14:02.453Z,65
2018-05-31T06:15:04.455Z,66
2018-05-31T06:16:06.772Z,65
2018-05-31T06:17:08.791Z,65
2018-05-31T06:18:11.181Z,64
2018-05-31T06:19:13.187Z,63
2018-05-31T06:20:15.190Z,63
2018-05-31T06:21:17.214Z,63
2018-05-31T06:22:19.234Z,62
2018-05-31T06:23:21.236Z,62
2018-05-31T06:24:23.554Z,62
2018-05-31T06:25:25.563Z,61
2018-05-31T06:26:27.705Z,62
2018-05-31T06:27:29.578Z,62
2018-05-31T06:28:31.878Z,62
2018-05-31T06:29:33.896Z,63
2018-05-31T06:30:35.890Z,62
2018-05-31T06:31:38.669Z,62
2018-05-31T06:32:40.683Z,64
2018-05-31T06:33:43.307Z,61
2018-05-31T06:34:45.323Z,61
2018-05-31T06:35:47.608Z,62
2018-05-31T06:36:49.617Z,62
2018-05-31T06:37:51.620Z,64
2018-05-31T06:38:53.623Z,62
2018-05-31T06:39:55.624Z,62
2018-05-31T06:40:57.627Z,62
2018-05-31T06:41:59.645Z,61
2018-05-31T06:43:02.056Z,62
2018-05-31T06:44:04.066Z,61
2018-05-31T06:45:06.069Z,65
2018-05-31T06:46:08.082Z,62
2018-05-31T06:47:10.086Z,62
2018-05-31T06:48:12.410Z,62
2018-05-31T06:49:14.416Z,62
2018-05-31T06:50:16.427Z,60
2018-05-31T06:51:18.429Z,60
2018-05-31T06:52:20.832Z,59
2018-05-31T06:53:23.222Z,59
2018-05-31T06:54:25.280Z,58
2018-05-31T06:55:27.520Z,59
2018-05-31T06:56:29.533Z,59
2018-05-31T06:57:31.546Z,58
2018-05-31T06:58:33.558Z,58
2018-05-31T06:59:35.567Z,59
2018-05-31T07:00:37.576Z,59
2018-05-31T07:01:39.591Z,59
2018-05-31T07:02:41.596Z,58
2018-05-31T07:03:43.595Z,57
2018-05-31T07:04:45.612Z,58
2018-05-31T07:05:47.906Z,59
2018-05-31T07:06:49.923Z,59
2018-05-31T07:07:52.210Z,59
2018-05-31T07:08:54.230Z,57
2018-05-31T07:09:56.232Z,58
2018-05-31T07:10:58.225Z,59
2018-05-31T07:12:00.241Z,57
2018-05-31T07:13:02.263Z,57
2018-05-31T07:14:04.263Z,57
2018-05-31T07:15:06.277Z,57
2018-05-31T07:16:08.576Z,58
2018-05-31T07:17:10.590Z,58
2018-05-31T07:18:12.600Z,59
2018-05-31T07:19:14.892Z,59
2018-05-31T07:20:16.909Z,58
2018-05-31T07:21:19.577Z,58
2018-05-31T07:22:22.246Z,58
2018-05-31T07:23:24.256Z,59
2018-05-31T07:24:26.267Z,59
2018-05-31T07:25:28.276Z,59
2018-05-31T07:26:30.279Z,58
2018-05-31T07:27:32.879Z,58
2018-05-31T07:28:34.885Z,58
2018-05-31T07:29:36.878Z,58
2018-05-31T07:30:38.903Z,57
2018-05-31T07:31:41.298Z,54
2018-05-31T07:32:43.316Z,54
2018-05-31T07:33:45.607Z,53
2018-05-31T07:34:47.621Z,52
2018-05-31T07:35:49.633Z,53
2018-05-31T07:36:51.627Z,52
2018-05-31T07:37:53.644Z,52
2018-05-31T07:38:56.040Z,52
2018-05-31T07:39:58.422Z,53
2018-05-31T07:41:00.441Z,54
2018-05-31T07:42:02.734Z,54
2018-05-31T07:43:04.755Z,53
2018-05-31T07:44:06.753Z,53
2018-05-31T07:45:08.767Z,52
2018-05-31T07:46:10.777Z,53
2018-05-31T07:47:12.784Z,55
2018-05-31T07:48:15.180Z,52
2018-05-31T07:49:17.202Z,52
2018-05-31T07:50:19.497Z,53
2018-05-31T07:51:21.555Z,52
2018-05-31T07:52:23.807Z,53
2018-05-31T07:53:25.817Z,53
2018-05-31T07:54:27.831Z,53
2018-05-31T07:55:29.854Z,53
2018-05-31T07:56:32.143Z,52
2018-05-31T07:57:34.147Z,52
2018-05-31T07:58:36.543Z,52
2018-05-31T07:59:38.841Z,53
2018-05-31T08:00:40.856Z,54
2018-05-31T08:01:42.872Z,52
2018-05-31T08:02:45.179Z,53
2018-05-31T08:03:47.186Z,53
2018-05-31T08:04:49.188Z,53
2018-05-31T08:05:51.502Z,54
2018-05-31T08:06:53.900Z,53
2018-05-31T08:07:55.907Z,54
2018-05-31T08:08:58.228Z,53
2018-05-31T08:10:00.232Z,53
2018-05-31T08:11:02.531Z,53
2018-05-31T08:12:04.543Z,54
2018-05-31T08:13:06.551Z,53
2018-05-31T08:14:08.560Z,53
2018-05-31T08:15:11.162Z,54
2018-05-31T08:16:13.170Z,54
2018-05-31T08:17:15.185Z,52
2018-05-31T08:18:17.198Z,54
2018-05-31T08:19:19.230Z,55
2018-05-31T08:20:21.230Z,52
2018-05-31T08:21:23.628Z,51
2018-05-31T08:22:25.642Z,51
2018-05-31T08:23:27.658Z,52
2018-05-31T08:24:29.661Z,52
2018-05-31T08:25:31.683Z,52
2018-05-31T08:26:33.981Z,53
2018-05-31T08:27:36.283Z,52
2018-05-31T08:28:38.287Z,53
2018-05-31T08:29:40.296Z,52
2018-05-31T08:30:42.315Z,50
2018-05-31T08:31:44.347Z,52
2018-05-31T08:32:46.812Z,51
2018-05-31T08:33:48.826Z,52
2018-05-31T08:34:50.827Z,52
2018-05-31T08:35:52.851Z,53
2018-05-31T08:36:54.867Z,51
2018-05-31T08:37:56.875Z,50
2018-05-31T08:38:58.894Z,50
2018-05-31T08:40:01.215Z,50
2018-05-31T08:41:03.234Z,49
2018-05-31T08:42:05.287Z,49
2018-05-31T08:43:07.342Z,48
2018-05-31T08:44:09.442Z,48
2018-05-31T08:45:11.475Z,48
2018-05-31T08:46:13.534Z,48
2018-05-31T08:47:15.881Z,48
2018-05-31T08:48:17.949Z,48
2018-05-31T08:49:20.024Z,47
2018-05-31T08:50:22.074Z,45
2018-05-31T08:51:24.180Z,45
2018-05-31T08:52:26.190Z,47
2018-05-31T08:53:28.249Z,46
2018-05-31T08:54:30.306Z,45
2018-05-31T08:55:32.752Z,46
2018-05-31T08:56:34.798Z,47
2018-05-31T08:57:36.861Z,46
2018-05-31T08:58:38.912Z,46
2018-05-31T08:59:40.985Z,45
2018-05-31T09:00:43.045Z,42
2018-05-31T09:01:45.092Z,44
2018-05-31T09:02:47.447Z,44
2018-05-31T09:03:49.499Z,45
2018-05-31T09:04:51.931Z,45
2018-05-31T09:05:54.282Z,46
2018-05-31T09:06:56.623Z,44
2018-05-31T09:07:58.681Z,44
2018-05-31T09:09:00.750Z,44
2018-05-31T09:10:02.811Z,44
2018-05-31T09:11:04.868Z,43
2018-05-31T09:12:06.917Z,44
2018-05-31T09:13:08.969Z,43
2018-05-31T09:14:11.037Z,43
2018-05-31T09:15:13.106Z,44
2018-05-31T09:16:15.794Z,42
2018-05-31T09:17:18.175Z,42
2018-05-31T09:18:20.224Z,43
2018-05-31T09:19:22.275Z,43
2018-05-31T09:20:24.334Z,44
2018-05-31T09:21:26.392Z,42
2018-05-31T09:22:28.457Z,41
2018-05-31T09:23:30.507Z,42
2018-05-31T09:24:32.573Z,43
2018-05-31T09:25:34.622Z,42
2018-05-31T09:26:36.974Z,41
2018-05-31T09:27:39.026Z,41
2018-05-31T09:28:41.081Z,41
2018-05-31T09:29:43.451Z,40
2018-05-31T09:30:45.501Z,40
2018-05-31T09:31:47.849Z,39
2018-05-31T09:32:50.298Z,40
2018-05-31T09:33:52.357Z,41
2018-05-31T09:34:54.417Z,42
2018-05-31T09:35:56.472Z,41
2018-05-31T09:36:58.816Z,40
2018-05-31T09:38:01.176Z,40
2018-05-31T09:39:03.560Z,41
2018-05-31T09:40:05.675Z,40
2018-05-31T09:41:07.779Z,40
2018-05-31T09:42:09.784Z,40
2018-05-31T09:43:12.134Z,40
2018-05-31T09:44:14.195Z,40
2018-05-31T09:45:16.259Z,40
2018-05-31T09:46:18.720Z,40
2018-05-31T09:47:20.773Z,41
2018-05-31T09:48:23.226Z,38
2018-05-31T09:49:25.641Z,39
2018-05-31T09:50:28.544Z,40
2018-05-31T09:51:30.609Z,37
2018-05-31T09:52:33.018Z,37
2018-05-31T09:53:35.085Z,39
2018-05-31T09:54:37.151Z,39
2018-05-31T09:55:40.182Z,39
2018-05-31T09:56:42.315Z,40
2018-05-31T09:57:44.658Z,38
2018-05-31T09:58:47.639Z,37
2018-05-31T09:59:49.731Z,36
2018-05-31T10:00:52.104Z,37
2018-05-31T10:01:54.175Z,39
2018-05-31T10:02:56.603Z,38
2018-05-31T10:03:58.671Z,36
2018-05-31T10:05:00.739Z,35
2018-05-31T10:06:02.799Z,38
2018-05-31T10:07:04.871Z,38
2018-05-31T10:08:06.932Z,38
2018-05-31T10:09:08.985Z,38
2018-05-31T10:10:11.052Z,39
2018-05-31T10:11:13.119Z,39
2018-05-31T10:12:15.187Z,37
2018-05-31T10:13:17.558Z,37
2018-05-31T10:14:20.040Z,36
2018-05-31T10:15:22.098Z,36
2018-05-31T10:16:24.236Z,37
2018-05-31T10:17:26.331Z,36
2018-05-31T10:18:28.471Z,38
2018-05-31T10:19:30.539Z,38
2018-05-31T10:20:32.640Z,38
2018-05-31T10:21:34.791Z,36
2018-05-31T10:22:37.854Z,38
2018-05-31T10:23:40.143Z,39
2018-05-31T10:24:42.199Z,39
2018-05-31T10:25:44.316Z,39
2018-05-31T10:26:46.442Z,39
2018-05-31T10:27:48.797Z,41
2018-05-31T10:28:51.531Z,39
2018-05-31T10:29:53.587Z,38
2018-05-31T10:30:55.648Z,37
2018-05-31T10:31:57.723Z,38
2018-05-31T10:33:00.177Z,39
2018-05-31T10:34:02.242Z,37
2018-05-31T10:35:04.311Z,36
2018-05-31T10:36:06.759Z,36
2018-05-31T10:37:08.824Z,36
2018-05-31T10:38:10.895Z,38
2018-05-31T10:39:13.260Z,38
2018-05-31T10:40:15.723Z,36
2018-05-31T10:41:17.767Z,37
2018-05-31T10:42:19.841Z,37
2018-05-31T10:43:22.341Z,35
2018-05-31T10:44:24.694Z,34
2018-05-31T10:45:27.068Z,34
2018-05-31T10:46:30.815Z,35
2018-05-31T10:47:34.819Z,35
2018-05-31T10:48:37.349Z,34
2018-05-31T10:49:39.412Z,34
2018-05-31T10:50:41.487Z,34
2018-05-31T10:51:43.551Z,33
2018-05-31T10:52:45.924Z,33
2018-05-31T10:53:48.046Z,33
2018-05-31T10:54:50.232Z,33
2018-05-31T10:55:52.361Z,33
2018-05-31T10:56:54.421Z,32
2018-05-31T10:57:56.529Z,34
2018-05-31T10:58:58.601Z,33
2018-05-31T11:00:00.949Z,33
2018-05-31T11:01:03.016Z,34
2018-05-31T11:02:05.087Z,34
2018-05-31T11:03:07.410Z,35
2018-05-31T11:04:09.440Z,36
2018-05-31T11:05:11.460Z,36
2018-05-31T11:06:13.491Z,36
2018-05-31T11:07:15.514Z,37
2018-05-31T11:08:17.552Z,37
2018-05-31T11:09:19.575Z,37
2018-05-31T11:10:21.604Z,36
2018-05-31T11:11:23.633Z,37
2018-05-31T11:12:25.673Z,37
2018-05-31T11:13:27.693Z,36
2018-05-31T11:14:29.716Z,36
2018-05-31T11:15:31.738Z,35
2018-05-31T11:16:34.147Z,35
2018-05-31T11:17:36.174Z,36
2018-05-31T11:18:38.204Z,36
2018-05-31T11:19:40.228Z,37
2018-05-31T11:20:42.262Z,37
2018-05-31T11:21:44.689Z,37
2018-05-31T11:22:46.707Z,37
2018-05-31T11:23:49.117Z,38
2018-05-31T11:24:51.142Z,38
2018-05-31T11:25:53.175Z,39
2018-05-31T11:26:55.197Z,39
2018-05-31T11:27:57.229Z,39
2018-05-31T11:28:59.265Z,38
2018-05-31T11:30:01.290Z,37
2018-05-31T11:31:03.321Z,36
2018-05-31T11:32:05.356Z,36
2018-05-31T11:33:07.977Z,36
2018-05-31T11:34:10.003Z,36
2018-05-31T11:35:12.022Z,37
2018-05-31T11:36:14.057Z,37
2018-05-31T11:37:16.081Z,37
2018-05-31T11:38:18.103Z,37
2018-05-31T11:39:20.135Z,38
2018-05-31T11:40:22.828Z,38
2018-05-31T11:41:25.409Z,37
2018-05-31T11:42:28.006Z,38
2018-05-31T11:43:30.322Z,36
2018-05-31T11:44:32.345Z,36
2018-05-31T11:45:34.374Z,36
2018-05-31T11:46:36.393Z,37
2018-05-31T11:47:38.408Z,35
2018-05-31T11:48:40.424Z,36
2018-05-31T11:49:42.453Z,35
2018-05-31T11:50:44.474Z,36
2018-05-31T11:51:46.874Z,36
2018-05-31T11:52:48.900Z,35
2018-05-31T11:53:50.924Z,34
2018-05-31T11:54:52.933Z,34
2018-05-31T11:55:54.963Z,34
2018-05-31T11:56:57.000Z,35
2018-05-31T11:57:59.045Z,35
2018-05-31T11:59:01.350Z,35
2018-05-31T12:00:03.366Z,34
2018-05-31T12:01:05.782Z,36
2018-05-31T12:02:07.801Z,35
2018-05-31T12:03:09.826Z,33
2018-05-31T12:04:11.850Z,33
2018-05-31T12:05:13.872Z,33
2018-05-31T12:06:15.903Z,32
2018-05-31T12:07:17.916Z,32
2018-05-31T12:08:19.960Z,31
2018-05-31T12:09:21.971Z,33
2018-05-31T12:10:23.984Z,31
2018-05-31T12:11:26.008Z,33
2018-05-31T12:12:28.325Z,33
2018-05-31T12:13:30.733Z,31
2018-05-31T12:14:32.759Z,32
2018-05-31T12:15:34.782Z,32
2018-05-31T12:16:36.813Z,32
2018-05-31T12:17:38.886Z,32
2018-05-31T12:18:40.858Z,32
2018-05-31T12:19:42.881Z,33
2018-05-31T12:20:44.889Z,33
2018-05-31T12:21:46.918Z,32
2018-05-31T12:22:49.217Z,31
2018-05-31T12:23:51.243Z,31
2018-05-31T12:24:53.275Z,31
2018-05-31T12:25:55.299Z,32
2018-05-31T12:26:57.334Z,31
2018-05-31T12:27:59.733Z,31
2018-05-31T12:29:01.758Z,31
2018-05-31T12:30:03.784Z,31
2018-05-31T12:31:06.105Z,31
2018-05-31T12:32:08.135Z,32
2018-05-31T12:33:10.435Z,32
2018-05-31T12:34:12.458Z,33
2018-05-31T12:35:14.770Z,32
2018-05-31T12:36:16.800Z,33
2018-05-31T12:37:18.814Z,33
2018-05-31T12:38:20.844Z,32
2018-05-31T12:39:22.868Z,32
2018-05-31T12:40:24.890Z,31
2018-05-31T12:41:26.916Z,33
2018-05-31T12:42:28.942Z,32
2018-05-31T12:43:30.977Z,31
2018-05-31T12:44:32.989Z,32
2018-05-31T12:45:35.020Z,32
2018-05-31T12:46:37.046Z,31
2018-05-31T12:47:39.453Z,32
2018-05-31T12:48:41.857Z,31
2018-05-31T12:49:43.887Z,31
2018-05-31T12:50:45.908Z,31
2018-05-31T12:51:47.927Z,32
2018-05-31T12:52:49.954Z,32
2018-05-31T12:53:52.363Z,32
2018-05-31T12:54:54.671Z,32
2018-05-31T12:55:56.693Z,33
2018-05-31T12:56:58.716Z,33
2018-05-31T12:58:00.738Z,33
2018-05-31T12:59:02.764Z,33
2018-05-31T13:00:05.087Z,32
2018-05-31T13:01:07.092Z,32
2018-05-31T13:02:09.127Z,32
2018-05-31T13:03:11.453Z,33
2018-05-31T13:04:13.484Z,33
2018-05-31T13:05:15.508Z,33
2018-05-31T13:06:17.537Z,33
2018-05-31T13:07:19.565Z,33
2018-05-31T13:08:21.585Z,32
2018-05-31T13:09:23.615Z,32
2018-05-31T13:10:25.652Z,32
2018-05-31T13:11:27.676Z,32
2018-05-31T13:12:29.698Z,32
2018-05-31T13:13:32.059Z,32
2018-05-31T13:14:34.418Z,31
2018-05-31T13:15:36.732Z,30
2018-05-31T13:16:39.045Z,29
2018-05-31T13:17:41.073Z,30
2018-05-31T13:18:43.099Z,31
2018-05-31T13:19:45.427Z,31
2018-05-31T13:20:47.453Z,31
2018-05-31T13:21:49.475Z,31
2018-05-31T13:22:51.508Z,31
2018-05-31T13:23:53.521Z,31
2018-05-31T13:24:55.561Z,32
2018-05-31T13:25:57.584Z,30
2018-05-31T13:26:59.888Z,31
2018-05-31T13:28:01.924Z,31
2018-05-31T13:29:03.947Z,31
2018-05-31T13:30:05.982Z,30
2018-05-31T13:31:08.001Z,30
2018-05-31T13:32:10.411Z,29
2018-05-31T13:33:12.445Z,31
2018-05-31T13:34:14.478Z,30
2018-05-31T13:35:16.511Z,29
2018-05-31T13:36:18.534Z,28
2018-05-31T13:37:20.563Z,29
2018-05-31T13:38:22.596Z,29
2018-05-31T13:39:24.920Z,30
2018-05-31T13:40:26.973Z,30
2018-05-31T13:41:28.993Z,30
2018-05-31T13:42:31.038Z,30
2018-05-31T13:43:33.084Z,30
2018-05-31T13:44:35.119Z,29
2018-05-31T13:45:37.151Z,28
2018-05-31T13:46:39.493Z,28
2018-05-31T13:47:41.525Z,28
2018-05-31T13:48:43.543Z,27
2018-05-31T13:49:45.578Z,27
2018-05-31T13:50:47.619Z,27
2018-05-31T13:51:49.650Z,27
2018-05-31T13:52:51.693Z,28
2018-05-31T13:53:53.777Z,28
2018-05-31T13:54:56.544Z,28
2018-05-31T13:55:58.573Z,27
2018-05-31T13:57:00.629Z,28
2018-05-31T13:58:02.661Z,28
2018-05-31T13:59:04.689Z,29
2018-05-31T14:00:07.049Z,30
2018-05-31T14:01:09.277Z,30
2018-05-31T14:02:11.398Z,30
2018-05-31T14:03:14.964Z,31
2018-05-31T14:04:17.019Z,32
2018-05-31T14:05:19.283Z,30
2018-05-31T14:06:21.689Z,30
2018-05-31T14:07:23.733Z,30
2018-05-31T14:08:26.344Z,31
2018-05-31T14:09:28.551Z,30
2018-05-31T14:10:33.141Z,31
2018-05-31T14:11:36.167Z,31
2018-05-31T14:12:38.518Z,31
2018-05-31T14:13:40.671Z,31
2018-05-31T14:14:42.748Z,31
2018-05-31T14:15:44.910Z,31
2018-05-31T14:16:47.319Z,35
2018-05-31T14:17:49.416Z,35
2018-05-31T14:18:51.676Z,32
2018-05-31T14:19:53.699Z,37
2018-05-31T14:20:55.772Z,34
2018-05-31T14:21:58.032Z,31
2018-05-31T14:23:00.369Z,28
2018-05-31T14:24:02.430Z,29
2018-05-31T14:25:04.511Z,29
2018-05-31T14:26:06.580Z,30
2018-05-31T14:27:08.653Z,30
2018-05-31T14:28:11.055Z,29
2018-05-31T14:29:13.445Z,29
2018-05-31T14:30:15.512Z,31
2018-05-31T14:31:17.577Z,29
2018-05-31T14:32:19.988Z,29
2018-05-31T14:33:22.070Z,29
2018-05-31T14:34:24.143Z,29
2018-05-31T14:35:26.497Z,29
2018-05-31T14:36:28.555Z,29
2018-05-31T14:37:30.627Z,28
2018-05-31T14:38:32.699Z,29
2018-05-31T14:39:34.770Z,29
2018-05-31T14:40:36.859Z,29
2018-05-31T14:41:39.210Z,28
2018-05-31T14:42:41.270Z,28
2018-05-31T14:43:43.337Z,27
2018-05-31T14:44:45.413Z,28
2018-05-31T14:45:47.772Z,28